Time;durP1;ratioP1;P1;durP2;ratioP2;P2;SDS_P1;SDS_P2;PMS_P1;PMS_P2;Temp;Humidity;BMP_temperature;BMP_pressure;BME280_temperature;BME280_humidity;BME280_pressure;Samples;Min_cycle;Max_cycle;Signal;HPM_P1;HPM_P2
2021/03/28 00:00:49;;;;;;;7.50;4.23;;;10.30;68.70;;;;;;5070904;28;20633;-50
2021/03/28 00:03:18;;;;;;;9.10;4.33;;;10.30;68.30;;;;;;5069606;28;21458;-50
2021/03/28 00:05:44;;;;;;;6.97;3.63;;;10.20;68.40;;;;;;5069419;28;20660;-50
2021/03/28 00:08:18;;;;;;;3.67;3.20;;;10.30;68.40;;;;;;5070213;28;21386;-51
2021/03/28 00:10:46;;;;;;;3.53;2.70;;;10.30;68.10;;;;;;5055347;28;20646;-49
2021/03/28 00:13:14;;;;;;;4.77;3.73;;;10.40;68.00;;;;;;5054306;28;20692;-50
2021/03/28 00:15:43;;;;;;;7.40;4.43;;;10.40;67.70;;;;;;5069587;28;21073;-49
2021/03/28 00:18:17;;;;;;;4.90;3.47;;;10.40;67.50;;;;;;5070047;28;20664;-50
2021/03/28 00:20:44;;;;;;;6.83;3.53;;;10.40;67.60;;;;;;5071293;28;20660;-50
2021/03/28 00:23:15;;;;;;;7.17;3.70;;;10.50;67.60;;;;;;5071232;28;20649;-50
2021/03/28 00:25:47;;;;;;;7.60;4.07;;;10.50;67.60;;;;;;5072672;28;20614;-49
2021/03/28 00:28:24;;;;;;;5.27;3.37;;;10.50;67.20;;;;;;5071648;28;21001;-50
2021/03/28 00:30:51;;;;;;;4.80;3.40;;;10.40;67.00;;;;;;5071164;28;20640;-51
2021/03/28 00:33:22;;;;;;;5.87;3.93;;;10.50;66.90;;;;;;5070026;28;21087;-50
2021/03/28 00:35:54;;;;;;;9.00;5.03;;;10.50;66.80;;;;;;5069604;28;20725;-50
2021/03/28 00:38:22;;;;;;;5.30;3.63;;;10.50;66.90;;;;;;5052624;28;20675;-51
2021/03/28 00:41:09;;;;;;;6.67;3.97;;;10.50;67.00;;;;;;5070565;28;20657;-50
2021/03/28 00:43:42;;;;;;;6.27;3.33;;;10.50;67.90;;;;;;5070479;28;21243;-51
2021/03/28 00:46:09;;;;;;;11.80;4.30;;;10.50;67.30;;;;;;5070683;28;20649;-50
2021/03/28 00:48:36;;;;;;;3.43;3.10;;;10.50;67.30;;;;;;5069020;28;20661;-50
2021/03/28 00:51:09;;;;;;;11.53;3.63;;;10.40;67.40;;;;;;5070032;28;20626;-50
2021/03/28 00:53:39;;;;;;;7.03;3.97;;;10.40;67.60;;;;;;5070565;28;21233;-50
2021/03/28 00:56:10;;;;;;;8.70;4.07;;;10.40;67.70;;;;;;5070509;28;20629;-50
2021/03/28 00:58:55;;;;;;;11.93;4.70;;;10.50;67.60;;;;;;5070566;28;21022;-51
2021/03/28 01:01:28;;;;;;;10.23;4.70;;;10.40;67.70;;;;;;5074595;28;20648;-49
2021/03/28 01:04:08;;;;;;;8.50;4.60;;;10.40;67.90;;;;;;5067343;28;21227;-50
2021/03/28 01:06:37;;;;;;;8.80;6.00;;;10.40;68.30;;;;;;5061213;28;20725;-50
2021/03/28 01:09:14;;;;;;;7.50;4.80;;;10.30;68.40;;;;;;5073514;28;20679;-50
2021/03/28 01:11:58;;;;;;;9.60;4.97;;;10.30;68.80;;;;;;5071027;28;21225;-50
2021/03/28 01:14:37;;;;;;;7.53;4.30;;;10.30;68.90;;;;;;5054552;28;20734;-51
2021/03/28 01:17:21;;;;;;;7.17;5.30;;;10.30;69.30;;;;;;5061164;28;20636;-51
2021/03/28 01:20:13;;;;;;;5.87;3.93;;;10.20;69.50;;;;;;5073745;28;21216;-50
2021/03/28 01:23:05;;;;;;;7.53;3.40;;;10.20;69.50;;;;;;5073005;28;20656;-50
2021/03/28 01:25:41;;;;;;;6.50;3.63;;;10.20;69.90;;;;;;5073467;28;20624;-49
2021/03/28 01:28:16;;;;;;;6.23;4.30;;;10.20;70.00;;;;;;5073713;28;20654;-50
2021/03/28 01:30:45;;;;;;;6.07;4.27;;;10.10;70.00;;;;;;5071089;28;20640;-50
2021/03/28 01:33:13;;;;;;;8.73;3.93;;;10.10;70.10;;;;;;5071999;28;20649;-51
2021/03/28 01:35:59;;;;;;;6.33;3.00;;;10.10;70.50;;;;;;5071149;28;21201;-50
2021/03/28 01:38:28;;;;;;;8.63;4.63;;;10.10;70.50;;;;;;5059160;28;20703;-49
2021/03/28 01:40:56;;;;;;;10.23;5.13;;;10.00;70.40;;;;;;5055079;28;21270;-50
2021/03/28 01:43:27;;;;;;;6.60;4.07;;;10.10;70.60;;;;;;5053082;28;21358;-50
2021/03/28 01:45:59;;;;;;;7.03;4.50;;;10.10;70.70;;;;;;5061861;28;20633;-50
2021/03/28 01:48:53;;;;;;;7.83;5.03;;;10.20;70.00;;;;;;5070536;28;20644;-50
2021/03/28 01:51:38;;;;;;;10.00;4.07;;;10.20;70.60;;;;;;5020188;28;20660;-50
2021/03/28 01:54:07;;;;;;;5.30;4.17;;;10.20;69.70;;;;;;5049340;28;21303;-50
2021/03/28 01:56:37;;;;;;;9.80;4.97;;;10.20;69.50;;;;;;5069425;28;20659;-50
2021/03/28 01:59:15;;;;;;;10.57;4.70;;;10.20;69.20;;;;;;5083467;28;20728;-50
2021/03/28 02:01:45;;;;;;;7.93;3.93;;;10.30;69.10;;;;;;5057877;28;20662;-54
2021/03/28 02:04:24;;;;;;;7.40;4.30;;;10.30;68.70;;;;;;5082349;28;20712;-50
2021/03/28 02:07:07;;;;;;;7.80;4.50;;;10.30;68.20;;;;;;5069931;28;20653;-51
2021/03/28 02:09:41;;;;;;;3.97;3.57;;;10.30;67.90;;;;;;5066604;28;20660;-51
2021/03/28 02:12:10;;;;;;;7.80;4.50;;;10.30;67.70;;;;;;5066209;28;20730;-50
2021/03/28 02:14:44;;;;;;;7.30;4.23;;;10.30;67.70;;;;;;5062561;28;20690;-51
2021/03/28 02:17:23;;;;;;;7.10;4.63;;;10.30;67.20;;;;;;5077677;28;21182;-50
2021/03/28 02:19:55;;;;;;;11.43;4.83;;;10.30;67.10;;;;;;5064328;28;20743;-51
2021/03/28 02:22:24;;;;;;;6.30;4.20;;;10.30;67.10;;;;;;5069266;28;20648;-51
2021/03/28 02:24:53;;;;;;;5.47;4.07;;;10.40;66.90;;;;;;5067435;28;20693;-55
2021/03/28 02:27:26;;;;;;;11.20;5.23;;;10.30;66.80;;;;;;5062239;28;20660;-51
2021/03/28 02:30:00;;;;;;;7.37;4.37;;;10.40;66.80;;;;;;5067537;28;20629;-51
2021/03/28 02:32:50;;;;;;;7.90;5.90;;;10.40;66.60;;;;;;5082156;28;20645;-50
2021/03/28 02:35:52;;;;;;;11.73;5.93;;;10.40;66.30;;;;;;5076258;28;20687;-50
2021/03/28 02:38:24;;;;;;;10.47;3.33;;;10.40;66.50;;;;;;5075602;28;20685;-51
2021/03/28 02:40:53;;;;;;;6.97;4.47;;;10.40;66.00;;;;;;5077923;28;20633;-51
2021/03/28 02:43:28;;;;;;;10.67;4.37;;;10.40;66.10;;;;;;5071169;28;20691;-51
2021/03/28 02:46:13;;;;;;;5.60;4.33;;;10.40;65.80;;;;;;5071185;28;21258;-51
2021/03/28 02:49:07;;;;;;;4.63;4.07;;;10.50;65.80;;;;;;5071069;28;20625;-51
2021/03/28 02:51:53;;;;;;;5.63;4.30;;;10.50;65.30;;;;;;5071055;28;20974;-51
2021/03/28 02:54:42;;;;;;;5.10;3.97;;;10.40;65.00;;;;;;5071579;28;20701;-51
2021/03/28 02:57:25;;;;;;;5.37;4.10;;;10.40;65.20;;;;;;5071115;28;20698;-49
2021/03/28 02:59:57;;;;;;;7.77;3.90;;;10.40;65.00;;;;;;5071162;28;20625;-49
2021/03/28 03:02:37;;;;;;;7.13;4.03;;;10.40;64.90;;;;;;5071533;28;20629;-49
2021/03/28 03:05:17;;;;;;;12.17;5.40;;;10.40;64.60;;;;;;5071452;28;20621;-50
2021/03/28 03:07:56;;;;;;;6.17;3.57;;;10.40;65.40;;;;;;5070946;28;20752;-50
2021/03/28 03:11:03;;;;;;;9.60;4.40;;;10.40;64.70;;;;;;5071329;28;20625;-50
2021/03/28 03:14:04;;;;;;;8.67;4.70;;;10.40;64.60;;;;;;5037245;28;20657;-50
2021/03/28 03:16:33;;;;;;;4.97;3.00;;;10.40;65.00;;;;;;5070411;28;20613;-50
2021/03/28 03:19:25;;;;;;;7.60;3.73;;;10.50;64.40;;;;;;5070586;28;20652;-49
2021/03/28 03:22:27;;;;;;;12.07;4.10;;;10.50;64.10;;;;;;5057336;28;20661;-49
2021/03/28 03:25:21;;;;;;;9.57;4.83;;;10.50;63.90;;;;;;5071301;28;20654;-49
2021/03/28 03:28:26;;;;;;;6.33;4.10;;;10.50;63.60;;;;;;5070791;28;21197;-49
2021/03/28 03:31:07;;;;;;;9.00;5.10;;;10.40;63.60;;;;;;5030388;28;20632;-49
2021/03/28 03:33:47;;;;;;;7.90;5.20;;;10.40;64.00;;;;;;5049750;28;596368;-49
2021/03/28 03:36:35;;;;;;;8.93;5.23;;;10.40;63.80;;;;;;5073530;28;20636;-50
2021/03/28 03:39:14;;;;;;;12.70;4.03;;;10.50;63.80;;;;;;5071781;28;20633;-50
2021/03/28 03:41:54;;;;;;;7.67;4.97;;;10.50;63.80;;;;;;5071878;28;20655;-49
2021/03/28 03:44:23;;;;;;;8.77;4.43;;;10.50;63.70;;;;;;5071351;28;21275;-49
2021/03/28 03:47:13;;;;;;;7.97;4.63;;;10.60;63.40;;;;;;5071289;28;20632;-49
2021/03/28 03:50:03;;;;;;;10.60;4.30;;;10.50;63.10;;;;;;5066215;28;20686;-49
2021/03/28 03:53:00;;;;;;;5.70;3.80;;;10.50;63.10;;;;;;5070985;28;20690;-49
2021/03/28 03:55:33;;;;;;;8.67;4.37;;;10.40;63.80;;;;;;5071309;28;20689;-49
2021/03/28 03:58:04;;;;;;;7.03;3.27;;;10.50;62.90;;;;;;5070843;28;20629;-49
2021/03/28 04:00:33;;;;;;;5.70;3.07;;;10.50;63.00;;;;;;5071575;28;20644;-50
2021/03/28 04:03:10;;;;;;;10.27;4.17;;;10.50;63.00;;;;;;5070989;28;20703;-49
2021/03/28 04:06:10;;;;;;;6.33;3.20;;;10.50;62.80;;;;;;5071709;28;20621;-50
2021/03/28 04:09:01;;;;;;;8.37;3.50;;;10.50;62.70;;;;;;5050765;28;20614;-49
2021/03/28 04:11:48;;;;;;;9.50;4.07;;;10.50;62.50;;;;;;5051160;28;21047;-49
2021/03/28 04:14:24;;;;;;;5.17;3.40;;;10.50;62.50;;;;;;5063779;28;20696;-50
2021/03/28 04:17:13;;;;;;;7.73;3.77;;;10.50;62.50;;;;;;5072504;28;20648;-50
2021/03/28 04:19:54;;;;;;;9.63;4.00;;;10.60;62.40;;;;;;5078380;28;20624;-49
2021/03/28 04:22:52;;;;;;;6.37;3.80;;;10.60;62.00;;;;;;5070855;28;20670;-50
2021/03/28 04:25:39;;;;;;;10.10;4.00;;;10.60;61.60;;;;;;5053640;28;20651;-50
2021/03/28 04:28:32;;;;;;;7.47;4.00;;;10.60;61.60;;;;;;5070643;28;20625;-50
2021/03/28 04:31:21;;;;;;;7.53;3.60;;;10.60;61.50;;;;;;5064320;28;21262;-48
2021/03/28 04:33:50;;;;;;;9.90;4.07;;;10.60;61.30;;;;;;5070940;28;20700;-49
2021/03/28 04:36:20;;;;;;;9.90;3.60;;;10.60;61.30;;;;;;5074006;28;20629;-49
2021/03/28 04:38:55;;;;;;;6.87;4.40;;;10.60;61.30;;;;;;5074562;28;20656;-50
2021/03/28 04:41:46;;;;;;;4.93;3.47;;;10.60;61.40;;;;;;5074828;28;21290;-50
2021/03/28 04:44:40;;;;;;;6.73;3.13;;;10.60;61.50;;;;;;5066097;28;20676;-51
2021/03/28 04:47:42;;;;;;;5.80;3.60;;;10.50;61.20;;;;;;5065876;28;20669;-50
2021/03/28 04:50:44;;;;;;;10.77;3.90;;;10.60;61.20;;;;;;5074415;28;20628;-50
2021/03/28 04:53:27;;;;;;;6.57;3.40;;;10.50;61.20;;;;;;5070018;28;20668;-50
2021/03/28 04:56:11;;;;;;;7.00;3.10;;;10.60;61.20;;;;;;5074676;28;20692;-51
2021/03/28 04:58:57;;;;;;;9.57;3.33;;;10.60;61.20;;;;;;5073981;28;20632;-50
2021/03/28 05:01:40;;;;;;;6.10;2.90;;;10.60;60.90;;;;;;5056974;28;20625;-50
2021/03/28 05:04:51;;;;;;;5.90;3.30;;;10.50;60.90;;;;;;5073458;28;20673;-50
2021/03/28 05:07:50;;;;;;;5.87;4.17;;;10.50;60.80;;;;;;5074181;28;20628;-50
2021/03/28 05:10:33;;;;;;;7.10;4.70;;;10.50;60.90;;;;;;5074337;28;20621;-51
2021/03/28 05:13:33;;;;;;;6.13;3.50;;;10.50;61.10;;;;;;5074338;28;20660;-51
2021/03/28 05:16:36;;;;;;;9.07;3.10;;;10.40;61.20;;;;;;5054679;28;20685;-50
2021/03/28 05:19:30;;;;;;;7.33;2.97;;;10.40;61.30;;;;;;5018150;28;20676;-50
2021/03/28 05:22:34;;;;;;;5.27;3.30;;;10.40;61.40;;;;;;5080417;28;20994;-51
2021/03/28 05:25:46;;;;;;;6.87;4.20;;;10.40;61.70;;;;;;5081416;28;20621;-51
2021/03/28 05:28:43;;;;;;;7.70;4.37;;;10.40;61.70;;;;;;5084766;28;20656;-51
2021/03/28 05:31:48;;;;;;;8.50;3.90;;;10.30;61.70;;;;;;5073972;28;21041;-51
2021/03/28 05:34:49;;;;;;;6.10;3.50;;;10.30;61.80;;;;;;5074443;28;21318;-51
2021/03/28 05:37:41;;;;;;;15.93;3.97;;;10.30;62.00;;;;;;5073632;28;20655;-51
2021/03/28 05:40:37;;;;;;;9.00;5.60;;;10.30;62.00;;;;;;5073983;28;21189;-51
2021/03/28 05:43:37;;;;;;;5.27;3.33;;;10.30;62.00;;;;;;5073516;28;20674;-51
2021/03/28 05:46:08;;;;;;;4.90;3.00;;;10.40;62.00;;;;;;5069686;28;20621;-51
2021/03/28 05:48:50;;;;;;;11.90;3.83;;;10.40;61.90;;;;;;5073265;28;21054;-50
2021/03/28 05:51:30;;;;;;;5.40;3.33;;;10.40;61.80;;;;;;5073024;28;20628;-50
2021/03/28 05:54:36;;;;;;;12.47;3.77;;;10.50;61.60;;;;;;5055362;28;20710;-50
2021/03/28 05:57:43;;;;;;;11.60;3.40;;;10.50;61.20;;;;;;5050280;28;21021;-51
2021/03/28 06:00:46;;;;;;;6.37;3.00;;;10.50;60.90;;;;;;5072244;28;20628;-50
2021/03/28 06:03:58;;;;;;;7.37;3.83;;;10.50;60.90;;;;;;5086759;28;20655;-50
2021/03/28 06:06:55;;;;;;;7.63;4.30;;;10.50;61.10;;;;;;5067395;28;20659;-50
2021/03/28 06:09:42;;;;;;;8.50;3.60;;;10.50;60.90;;;;;;5072674;28;20621;-50
2021/03/28 06:12:17;;;;;;;11.53;4.73;;;10.50;60.80;;;;;;5073378;28;20647;-50
2021/03/28 06:14:46;;;;;;;4.27;2.90;;;10.50;61.10;;;;;;5053169;28;21227;-49
2021/03/28 06:17:26;;;;;;;6.67;2.97;;;10.50;60.90;;;;;;5053020;28;20657;-49
2021/03/28 06:20:35;;;;;;;4.60;2.80;;;10.50;60.50;;;;;;5063864;28;20617;-50
2021/03/28 06:23:37;;;;;;;4.30;3.50;;;10.60;60.40;;;;;;5037689;28;20677;-50
2021/03/28 06:26:52;;;;;;;3.90;3.13;;;10.60;60.40;;;;;;5027301;28;20675;-50
2021/03/28 06:29:44;;;;;;;8.83;3.20;;;10.70;60.50;;;;;;5058491;28;20653;-50
2021/03/28 06:32:47;;;;;;;4.07;2.50;;;10.70;60.20;;;;;;5072611;28;20629;-50
2021/03/28 06:35:47;;;;;;;10.63;3.57;;;10.70;60.20;;;;;;5072939;28;20656;-51
2021/03/28 06:38:36;;;;;;;7.27;3.63;;;10.70;59.90;;;;;;5072451;28;20698;-49
2021/03/28 06:41:39;;;;;;;9.70;3.50;;;10.80;60.00;;;;;;5062316;28;20625;-49
2021/03/28 06:44:46;;;;;;;8.20;3.37;;;10.70;60.10;;;;;;5009856;28;20705;-49
2021/03/28 06:47:51;;;;;;;9.53;3.40;;;10.70;60.00;;;;;;4972284;28;20653;-49
2021/03/28 06:50:35;;;;;;;12.13;2.97;;;10.70;60.00;;;;;;4988130;28;21043;-49
2021/03/28 06:53:26;;;;;;;5.97;3.67;;;10.70;60.00;;;;;;5057284;28;20653;-50
2021/03/28 06:56:10;;;;;;;10.70;4.03;;;10.70;60.10;;;;;;5072161;28;20661;-50
2021/03/28 06:58:51;;;;;;;8.23;3.97;;;10.70;61.40;;;;;;5071385;28;20678;-50
2021/03/28 07:01:50;;;;;;;9.20;3.57;;;10.70;60.60;;;;;;5071724;28;20632;-49
2021/03/28 07:04:57;;;;;;;8.60;3.77;;;10.80;60.50;;;;;;5071760;28;20711;-49
2021/03/28 07:07:38;;;;;;;5.80;3.40;;;10.90;60.20;;;;;;5051468;28;20656;-49
2021/03/28 07:10:23;;;;;;;8.40;4.43;;;11.10;59.90;;;;;;5071975;28;20682;-49
2021/03/28 07:13:15;;;;;;;8.17;3.27;;;11.20;59.30;;;;;;5072018;28;20665;-49
2021/03/28 07:15:51;;;;;;;6.40;4.37;;;11.40;58.90;;;;;;5061297;28;20717;-49
2021/03/28 07:19:12;;;;;;;7.03;2.97;;;11.50;59.30;;;;;;5072112;28;20656;-49
2021/03/28 07:21:57;;;;;;;6.27;3.20;;;11.60;58.50;;;;;;5037586;28;20699;-49
2021/03/28 07:24:51;;;;;;;3.73;2.40;;;11.70;57.90;;;;;;5063030;28;21241;-49
2021/03/28 07:27:42;;;;;;;11.53;3.50;;;11.90;57.50;;;;;;5033542;28;20986;-49
2021/03/28 07:30:45;;;;;;;8.47;3.37;;;11.80;57.10;;;;;;5068235;28;21032;-49
2021/03/28 07:33:36;;;;;;;10.50;4.97;;;11.90;57.30;;;;;;5071774;28;20715;-51
2021/03/28 07:36:18;;;;;;;7.53;4.23;;;11.80;56.90;;;;;;5072004;28;20663;-51
2021/03/28 07:39:10;;;;;;;4.87;3.40;;;11.90;57.50;;;;;;5063677;28;20621;-50
2021/03/28 07:42:16;;;;;;;6.33;4.30;;;12.00;57.30;;;;;;5052984;28;20614;-50
2021/03/28 07:45:15;;;;;;;8.77;5.60;;;12.00;56.90;;;;;;5071905;28;20660;-50
2021/03/28 07:48:33;;;;;;;6.67;4.73;;;11.90;56.60;;;;;;5082526;28;20631;-50
2021/03/28 07:51:09;;;;;;;8.17;3.80;;;11.80;56.80;;;;;;5078402;28;21236;-49
2021/03/28 07:54:08;;;;;;;5.10;2.90;;;11.90;57.10;;;;;;5055395;28;20640;-51
2021/03/28 07:56:57;;;;;;;11.40;3.73;;;12.00;57.40;;;;;;5053758;28;20690;-52
2021/03/28 07:59:28;;;;;;;6.43;3.30;;;12.00;56.50;;;;;;5067825;28;21272;-50
2021/03/28 08:02:05;;;;;;;9.30;4.07;;;12.10;56.30;;;;;;5062270;28;20629;-51
2021/03/28 08:05:02;;;;;;;12.13;4.20;;;12.20;56.10;;;;;;5068319;28;21053;-50
2021/03/28 08:07:36;;;;;;;7.30;2.77;;;12.20;56.20;;;;;;5070928;28;20621;-50
2021/03/28 08:10:24;;;;;;;6.57;3.73;;;12.30;56.00;;;;;;5062202;28;20726;-50
2021/03/28 08:13:29;;;;;;;4.77;3.50;;;12.30;55.90;;;;;;5041695;28;20689;-50
2021/03/28 08:16:10;;;;;;;8.37;3.53;;;12.40;55.60;;;;;;5036449;28;21223;-51
2021/03/28 08:18:40;;;;;;;4.73;3.70;;;12.50;55.40;;;;;;5067672;28;20683;-50
2021/03/28 08:21:17;;;;;;;5.10;4.07;;;12.60;55.50;;;;;;5075129;28;21094;-49
2021/03/28 08:24:25;;;;;;;11.37;3.60;;;12.70;55.40;;;;;;5076862;28;20649;-49
2021/03/28 08:27:05;;;;;;;6.27;3.00;;;12.90;55.10;;;;;;5071330;28;20647;-49
2021/03/28 08:29:44;;;;;;;8.60;3.37;;;12.80;54.50;;;;;;5070549;28;20965;-50
2021/03/28 08:32:23;;;;;;;11.53;4.70;;;12.70;54.70;;;;;;5073183;28;20657;-50
2021/03/28 08:34:59;;;;;;;9.03;3.50;;;12.80;55.40;;;;;;5064808;28;20708;-50
2021/03/28 08:37:33;;;;;;;8.43;4.07;;;13.00;54.80;;;;;;5066163;28;20628;-49
2021/03/28 08:40:32;;;;;;;5.27;3.23;;;13.20;54.10;;;;;;5068489;28;21175;-52
2021/03/28 08:43:32;;;;;;;6.77;4.10;;;13.20;54.20;;;;;;5060865;28;20700;-51
2021/03/28 08:46:20;;;;;;;5.13;3.50;;;13.50;53.60;;;;;;5076532;28;21233;-51
2021/03/28 08:48:49;;;;;;;6.73;4.10;;;13.60;53.40;;;;;;5066526;28;21377;-51
2021/03/28 08:51:30;;;;;;;5.83;3.40;;;13.80;53.30;;;;;;5074391;28;20624;-49
2021/03/28 08:54:03;;;;;;;8.70;3.70;;;13.80;52.60;;;;;;5062766;28;20701;-51
2021/03/28 08:56:58;;;;;;;5.17;3.80;;;13.60;52.40;;;;;;5076056;28;20649;-51
2021/03/28 08:59:36;;;;;;;5.87;3.73;;;13.60;52.60;;;;;;5068020;28;21177;-51
2021/03/28 09:02:18;;;;;;;8.60;4.57;;;13.80;52.60;;;;;;5067974;28;21061;-51
2021/03/28 09:04:52;;;;;;;9.10;4.23;;;14.00;51.90;;;;;;5072072;28;20687;-51
2021/03/28 09:07:30;;;;;;;8.97;3.57;;;14.10;51.90;;;;;;5067628;28;20703;-50
2021/03/28 09:10:23;;;;;;;9.43;4.20;;;14.00;51.70;;;;;;5070910;28;20656;-50
2021/03/28 09:13:04;;;;;;;12.17;2.90;;;14.00;51.70;;;;;;5060097;28;20711;-50
2021/03/28 09:15:36;;;;;;;6.27;3.87;;;14.30;64.30;;;;;;5068729;28;21109;-50
2021/03/28 09:18:12;;;;;;;9.57;4.27;;;14.70;53.60;;;;;;5073848;28;21250;-50
2021/03/28 09:20:52;;;;;;;6.27;4.37;;;14.70;51.80;;;;;;5081581;28;20624;-50
2021/03/28 09:23:40;;;;;;;7.27;4.13;;;15.00;52.60;;;;;;5076092;28;20652;-50
2021/03/28 09:26:18;;;;;;;9.23;4.20;;;15.20;50.20;;;;;;5093924;28;20615;-51
2021/03/28 09:28:51;;;;;;;6.20;4.63;;;15.10;49.30;;;;;;5075970;28;20621;-50
2021/03/28 09:31:23;;;;;;;3.73;2.50;;;14.90;49.10;;;;;;5055915;28;20628;-50
2021/03/28 09:34:02;;;;;;;4.77;4.27;;;14.80;50.00;;;;;;5070107;28;20754;-50
2021/03/28 09:36:41;;;;;;;9.60;5.13;;;14.70;50.60;;;;;;5081624;28;20679;-50
2021/03/28 09:39:46;;;;;;;5.00;3.70;;;14.80;50.60;;;;;;5080840;28;20978;-50
2021/03/28 09:42:33;;;;;;;10.03;2.83;;;15.00;50.80;;;;;;5099651;22;20780;-55
2021/03/28 09:45:48;;;;;;;6.47;3.40;;;15.30;49.40;;;;;;5098822;28;20654;-56
2021/03/28 09:48:37;;;;;;;5.33;4.83;;;15.30;48.20;;;;;;5098433;28;20677;-56
2021/03/28 09:51:33;;;;;;;6.23;2.80;;;15.10;48.60;;;;;;5089969;28;21051;-56
2021/03/28 09:54:10;;;;;;;5.13;3.83;;;15.00;48.50;;;;;;5102565;28;20666;-55
2021/03/28 09:57:05;;;;;;;13.80;4.30;;;14.90;48.90;;;;;;5096595;28;20648;-54
2021/03/28 09:59:53;;;;;;;5.27;2.90;;;15.10;48.50;;;;;;5089153;28;22275;-55
2021/03/28 10:02:32;;;;;;;7.37;3.90;;;15.30;48.10;;;;;;5094475;28;20647;-56
2021/03/28 10:05:08;;;;;;;3.67;2.90;;;15.40;47.80;;;;;;5086608;28;21219;-56
2021/03/28 10:07:44;;;;;;;5.40;3.17;;;15.40;46.80;;;;;;5099005;28;20624;-57
2021/03/28 10:10:35;;;;;;;5.80;3.43;;;15.30;46.70;;;;;;5116493;28;20642;-55
2021/03/28 10:13:19;;;;;;;6.77;4.17;;;15.40;47.30;;;;;;5075205;28;21017;-57
2021/03/28 10:15:53;;;;;;;8.13;5.00;;;15.80;46.40;;;;;;5092017;28;20668;-55
2021/03/28 10:18:23;;;;;;;5.33;3.83;;;15.70;45.50;;;;;;5080401;28;20700;-57
2021/03/28 10:21:06;;;;;;;7.10;5.63;;;16.00;45.90;;;;;;5114220;28;21005;-58
2021/03/28 10:23:44;;;;;;;7.67;4.20;;;16.30;45.00;;;;;;5099097;28;20627;-57
2021/03/28 10:26:19;;;;;;;9.20;3.70;;;16.60;44.30;;;;;;5095292;28;20639;-57
2021/03/28 10:29:03;;;;;;;4.67;4.10;;;17.10;43.20;;;;;;5103856;28;20678;-57
2021/03/28 10:31:40;;;;;;;3.07;2.27;;;17.30;41.90;;;;;;5098605;28;20981;-58
2021/03/28 10:34:29;;;;;;;5.67;2.30;;;16.90;41.20;;;;;;5088101;28;20659;-58
2021/03/28 10:37:04;;;;;;;5.03;2.93;;;16.50;41.70;;;;;;5049387;28;20770;-58
2021/03/28 10:39:43;;;;;;;4.10;2.83;;;16.00;42.20;;;;;;5099066;28;21004;-58
2021/03/28 10:42:32;;;;;;;3.37;1.97;;;15.80;42.40;;;;;;5094202;28;20718;-58
2021/03/28 10:45:30;;;;;;;2.67;2.30;;;15.60;41.80;;;;;;5090133;28;20632;-57
2021/03/28 10:48:31;;;;;;;2.70;2.10;;;15.50;41.30;;;;;;5108983;28;20619;-58
2021/03/28 10:51:26;;;;;;;6.03;5.03;;;15.50;42.30;;;;;;5112732;28;20681;-58
2021/03/28 10:54:11;;;;;;;2.73;1.80;;;15.70;42.40;;;;;;5065542;28;20661;-58
2021/03/28 10:57:02;;;;;;;4.40;2.83;;;15.80;40.90;;;;;;5047976;28;21073;-58
2021/03/28 11:00:01;;;;;;;10.47;5.63;;;15.90;39.20;;;;;;5098246;28;20627;-59
2021/03/28 11:03:03;;;;;;;3.50;3.17;;;16.50;38.50;;;;;;5082516;28;20684;-57
2021/03/28 11:06:04;;;;;;;1.70;1.10;;;16.90;37.70;;;;;;5089599;28;20624;-58
2021/03/28 11:08:42;;;;;;;2.50;1.70;;;17.20;37.60;;;;;;5073341;28;21217;-57
2021/03/28 11:11:44;;;;;;;5.40;3.20;;;17.30;40.70;;;;;;5084041;28;21112;-58
2021/03/28 11:14:22;;;;;;;4.50;1.57;;;17.20;41.80;;;;;;5007257;28;20654;-59
2021/03/28 11:17:14;;;;;;;2.70;1.77;;;17.00;37.60;;;;;;5073110;28;20668;-57
2021/03/28 11:20:25;;;;;;;7.40;3.03;;;16.60;37.80;;;;;;5100835;28;20683;-58
2021/03/28 11:23:04;;;;;;;4.73;1.30;;;16.60;38.30;;;;;;4995845;28;21429;-57
2021/03/28 11:25:31;;;;;;;5.00;2.40;;;16.50;37.80;;;;;;5077692;28;20609;-59
2021/03/28 11:28:19;;;;;;;4.53;2.43;;;16.40;38.10;;;;;;5076053;28;20624;-60
2021/03/28 11:30:47;;;;;;;3.20;2.23;;;16.30;38.50;;;;;;5108036;28;20712;-58
2021/03/28 11:33:28;;;;;;;7.93;2.60;;;16.30;38.00;;;;;;5092632;28;20630;-57
2021/03/28 11:36:19;;;;;;;3.90;2.90;;;16.20;38.00;;;;;;5094227;28;20699;-58
2021/03/28 11:39:20;;;;;;;3.37;2.97;;;16.20;38.40;;;;;;5084826;28;20709;-58
2021/03/28 11:41:50;;;;;;;5.30;3.03;;;16.60;38.20;;;;;;5102602;28;20662;-60
2021/03/28 11:44:22;;;;;;;6.03;2.40;;;17.30;37.70;;;;;;5086741;28;20651;-59
2021/03/28 11:46:53;;;;;;;2.73;2.30;;;18.20;36.70;;;;;;5083956;28;20660;-57
2021/03/28 11:49:20;;;;;;;6.67;2.63;;;18.90;35.20;;;;;;5085976;28;20677;-57
2021/03/28 11:52:18;;;;;;;2.13;1.23;;;19.20;34.40;;;;;;5092836;28;20709;-57
2021/03/28 11:55:13;;;;;;;4.90;2.03;;;18.60;34.00;;;;;;5102131;28;20615;-57
2021/03/28 11:57:40;;;;;;;5.57;2.63;;;18.00;34.80;;;;;;5069005;28;20716;-58
2021/03/28 12:00:41;;;;;;;3.87;2.23;;;17.80;35.80;;;;;;5111243;28;20623;-58
2021/03/28 12:03:31;;;;;;;4.53;2.83;;;17.70;35.90;;;;;;5092035;28;20628;-58
2021/03/28 12:06:00;;;;;;;4.90;2.07;;;17.60;36.20;;;;;;5090477;28;20662;-58
2021/03/28 12:08:29;;;;;;;3.87;2.30;;;17.50;36.20;;;;;;5090012;28;21249;-57
2021/03/28 12:10:58;;;;;;;4.73;1.90;;;17.20;35.90;;;;;;5089931;28;20659;-59
2021/03/28 12:13:34;;;;;;;4.00;2.60;;;17.10;36.40;;;;;;5070884;28;20675;-58
2021/03/28 12:16:03;;;;;;;3.50;2.20;;;17.40;36.40;;;;;;5086747;28;20652;-57
2021/03/28 12:18:52;;;;;;;2.80;1.80;;;17.90;35.70;;;;;;5109007;28;21034;-58
2021/03/28 12:21:54;;;;;;;3.50;1.40;;;18.00;35.20;;;;;;5092283;28;21196;-57
2021/03/28 12:24:24;;;;;;;2.63;2.20;;;17.90;34.70;;;;;;5082988;28;21109;-58
2021/03/28 12:26:58;;;;;;;3.73;2.30;;;17.60;34.80;;;;;;5084810;28;20734;-56
2021/03/28 12:29:37;;;;;;;4.43;2.20;;;17.80;35.30;;;;;;5086338;28;20632;-57
2021/03/28 12:32:42;;;;;;;3.83;1.87;;;18.40;35.10;;;;;;5089033;28;20668;-58
2021/03/28 12:35:13;;;;;;;3.67;2.77;;;19.00;34.00;;;;;;5060218;28;20632;-56
2021/03/28 12:37:40;;;;;;;7.13;3.00;;;19.00;33.10;;;;;;5083387;28;20709;-58
2021/03/28 12:40:25;;;;;;;4.37;2.30;;;19.10;33.60;;;;;;5086441;28;20609;-57
2021/03/28 12:42:52;;;;;;;6.60;1.80;;;19.70;33.00;;;;;;5083202;28;20703;-57
2021/03/28 12:45:39;;;;;;;5.13;2.03;;;19.60;31.40;;;;;;5080947;28;20687;-59
2021/03/28 12:48:27;;;;;;;5.50;3.10;;;19.60;31.90;;;;;;5078582;28;21021;-58
2021/03/28 12:50:55;;;;;;;7.40;2.20;;;19.80;31.90;;;;;;5081782;28;21097;-57
2021/03/28 12:53:22;;;;;;;6.23;2.23;;;20.00;31.40;;;;;;5090223;28;20655;-58
2021/03/28 12:55:50;;;;;;;4.97;3.37;;;19.60;31.20;;;;;;5091987;28;20677;-58
2021/03/28 12:58:19;;;;;;;4.13;2.10;;;19.40;32.00;;;;;;5087328;28;20617;-57
2021/03/28 13:01:00;;;;;;;4.43;2.83;;;19.40;32.10;;;;;;5086524;28;20652;-58
2021/03/28 13:03:38;;;;;;;2.53;1.30;;;19.30;32.10;;;;;;5087244;28;20620;-57
2021/03/28 13:06:21;;;;;;;3.00;2.20;;;19.20;31.70;;;;;;5088524;28;20665;-57
2021/03/28 13:08:51;;;;;;;6.30;2.90;;;19.20;32.10;;;;;;5087445;28;21188;-58
2021/03/28 13:11:34;;;;;;;7.23;2.67;;;19.40;32.10;;;;;;5090551;28;21282;-58
2021/03/28 13:14:01;;;;;;;6.20;2.60;;;19.80;31.80;;;;;;5098275;28;20728;-60
2021/03/28 13:16:31;;;;;;;4.33;1.97;;;20.20;30.90;;;;;;5111760;28;20647;-57
2021/03/28 13:18:59;;;;;;;3.00;2.57;;;20.40;30.20;;;;;;5114336;28;21194;-57
2021/03/28 13:21:27;;;;;;;5.40;2.50;;;20.40;30.20;;;;;;5100344;28;20666;-56
2021/03/28 13:24:05;;;;;;;3.40;2.90;;;20.60;30.20;;;;;;5094186;28;21198;-58
2021/03/28 13:26:31;;;;;;;3.67;2.53;;;21.20;29.90;;;;;;5093717;28;21244;-57
2021/03/28 13:29:07;;;;;;;1.63;1.40;;;21.60;29.60;;;;;;5093938;28;20588;-58
2021/03/28 13:31:39;;;;;;;4.33;2.10;;;22.00;28.90;;;;;;5093681;28;20655;-57
2021/03/28 13:34:19;;;;;;;3.43;1.97;;;22.20;28.60;;;;;;5094153;28;20817;-58
2021/03/28 13:37:01;;;;;;;6.33;2.27;;;21.80;28.60;;;;;;5093652;28;20651;-58
2021/03/28 13:39:28;;;;;;;4.43;1.93;;;21.70;28.60;;;;;;5093850;28;20685;-57
2021/03/28 13:42:12;;;;;;;5.23;2.53;;;21.30;29.10;;;;;;5074679;28;20705;-56
2021/03/28 13:44:49;;;;;;;4.20;2.20;;;21.20;29.20;;;;;;5074499;28;20681;-57
2021/03/28 13:47:16;;;;;;;5.23;2.03;;;21.00;29.10;;;;;;5093761;28;20597;-57
2021/03/28 13:49:44;;;;;;;3.47;2.00;;;20.80;29.40;;;;;;5092716;28;20628;-57
2021/03/28 13:52:18;;;;;;;3.17;1.57;;;20.80;29.40;;;;;;5072995;28;20657;-58
2021/03/28 13:54:46;;;;;;;2.70;1.80;;;21.10;29.10;;;;;;5072640;28;21181;-57
2021/03/28 13:57:15;;;;;;;1.77;1.40;;;21.10;29.00;;;;;;5089046;28;20992;-57
2021/03/28 14:00:01;;;;;;;3.37;1.33;;;20.60;28.90;;;;;;5093108;28;20628;-58
2021/03/28 14:02:29;;;;;;;8.53;2.27;;;20.40;29.40;;;;;;5064280;28;20648;-58
2021/03/28 14:04:58;;;;;;;4.17;2.13;;;20.40;29.70;;;;;;5068350;28;20627;-58
2021/03/28 14:07:28;;;;;;;5.93;2.80;;;20.70;29.70;;;;;;5090798;28;20949;-59